sensor_id;sensor_type;location;lat;lon;timestamp;pressure;altitude;pressure_sealevel;temperature;humidity
74103;BME280;62853;46.166;3.640;2022-09-27T00:01:50;99625.91;;;9.33;100.00
74103;BME280;62853;46.166;3.640;2022-09-27T00:04:15;99628.53;;;9.33;100.00
74103;BME280;62853;46.166;3.640;2022-09-27T00:06:40;99633.56;;;9.36;100.00
74103;BME280;62853;46.166;3.640;2022-09-27T00:09:06;99634.84;;;9.30;100.00
74103;BME280;62853;46.166;3.640;2022-09-27T00:11:34;99646.94;;;9.33;100.00
74103;BME280;62853;46.166;3.640;2022-09-27T00:14:01;99647.03;;;9.31;100.00
74103;BME280;62853;46.166;3.640;2022-09-27T00:16:29;99629.69;;;9.28;100.00
74103;BME280;62853;46.166;3.640;2022-09-27T00:19:07;99629.78;;;9.27;100.00
74103;BME280;62853;46.166;3.640;2022-09-27T00:21:34;99632.63;;;9.24;100.00
74103;BME280;62853;46.166;3.640;2022-09-27T00:24:00;99641.38;;;9.24;100.00
74103;BME280;62853;46.166;3.640;2022-09-27T00:26:26;99636.94;;;9.25;100.00
74103;BME280;62853;46.166;3.640;2022-09-27T00:28:51;99636.31;;;9.21;100.00
74103;BME280;62853;46.166;3.640;2022-09-27T00:31:20;99642.50;;;9.20;100.00
74103;BME280;62853;46.166;3.640;2022-09-27T00:33:47;99642.59;;;9.19;100.00
74103;BME280;62853;46.166;3.640;2022-09-27T00:36:13;99650.69;;;9.16;100.00
74103;BME280;62853;46.166;3.640;2022-09-27T00:38:40;99649.88;;;9.15;100.00
74103;BME280;62853;46.166;3.640;2022-09-27T00:41:06;99643.88;;;9.13;100.00
74103;BME280;62853;46.166;3.640;2022-09-27T00:44:04;99667.41;;;9.15;100.00
74103;BME280;62853;46.166;3.640;2022-09-27T00:46:52;99662.56;;;9.08;100.00
74103;BME280;62853;46.166;3.640;2022-09-27T00:49:24;99672.66;;;9.15;100.00
74103;BME280;62853;46.166;3.640;2022-09-27T00:51:57;99668.44;;;9.12;100.00
74103;BME280;62853;46.166;3.640;2022-09-27T00:54:25;99671.84;;;9.14;100.00
74103;BME280;62853;46.166;3.640;2022-09-27T00:56:52;99663.09;;;9.13;100.00
74103;BME280;62853;46.166;3.640;2022-09-27T00:59:27;99658.72;;;9.14;100.00
74103;BME280;62853;46.166;3.640;2022-09-27T01:01:54;99663.81;;;9.16;100.00
74103;BME280;62853;46.166;3.640;2022-09-27T01:04:21;99671.72;;;9.16;100.00
74103;BME280;62853;46.166;3.640;2022-09-27T01:06:49;99663.72;;;9.17;100.00
74103;BME280;62853;46.166;3.640;2022-09-27T01:09:15;99659.34;;;9.18;100.00
74103;BME280;62853;46.166;3.640;2022-09-27T01:11:44;99657.34;;;9.21;100.00
74103;BME280;62853;46.166;3.640;2022-09-27T01:20:04;99652.50;;;9.15;100.00
74103;BME280;62853;46.166;3.640;2022-09-27T01:28:15;99657.75;;;9.15;100.00
74103;BME280;62853;46.166;3.640;2022-09-27T01:30:49;99660.47;;;9.13;100.00
74103;BME280;62853;46.166;3.640;2022-09-27T01:33:21;99662.78;;;9.18;100.00
74103;BME280;62853;46.166;3.640;2022-09-27T01:35:51;99655.94;;;9.16;100.00
74103;BME280;62853;46.166;3.640;2022-09-27T01:43:51;99678.53;;;9.05;100.00
74103;BME280;62853;46.166;3.640;2022-09-27T01:46:25;99675.16;;;9.03;100.00
74103;BME280;62853;46.166;3.640;2022-09-27T01:48:53;99681.47;;;9.01;100.00
74103;BME280;62853;46.166;3.640;2022-09-27T01:51:34;99672.94;;;8.97;100.00
74103;BME280;62853;46.166;3.640;2022-09-27T01:54:03;99674.94;;;8.93;100.00
74103;BME280;62853;46.166;3.640;2022-09-27T01:56:44;99681.44;;;8.88;100.00
74103;BME280;62853;46.166;3.640;2022-09-27T01:59:19;99674.72;;;8.84;100.00
74103;BME280;62853;46.166;3.640;2022-09-27T02:01:49;99669.88;;;8.78;100.00
74103;BME280;62853;46.166;3.640;2022-09-27T02:04:20;99679.53;;;8.77;100.00
74103;BME280;62853;46.166;3.640;2022-09-27T02:06:49;99685.00;;;8.74;100.00
74103;BME280;62853;46.166;3.640;2022-09-27T02:09:32;99701.69;;;8.73;100.00
74103;BME280;62853;46.166;3.640;2022-09-27T02:12:04;99693.81;;;8.73;100.00
74103;BME280;62853;46.166;3.640;2022-09-27T02:14:39;99691.38;;;8.70;100.00
74103;BME280;62853;46.166;3.640;2022-09-27T02:17:15;99678.56;;;8.65;100.00
74103;BME280;62853;46.166;3.640;2022-09-27T02:19:57;99686.34;;;8.67;100.00
74103;BME280;62853;46.166;3.640;2022-09-27T02:22:37;99688.72;;;8.57;100.00
74103;BME280;62853;46.166;3.640;2022-09-27T02:25:28;99703.41;;;8.60;100.00
74103;BME280;62853;46.166;3.640;2022-09-27T02:30:44;99694.72;;;8.59;100.00
74103;BME280;62853;46.166;3.640;2022-09-27T02:33:10;99700.25;;;8.54;100.00
74103;BME280;62853;46.166;3.640;2022-09-27T02:35:35;99688.28;;;8.50;100.00
74103;BME280;62853;46.166;3.640;2022-09-27T02:38:02;99684.91;;;8.48;100.00
74103;BME280;62853;46.166;3.640;2022-09-27T02:40:34;99683.13;;;8.49;100.00
74103;BME280;62853;46.166;3.640;2022-09-27T02:43:02;99686.59;;;8.49;100.00
74103;BME280;62853;46.166;3.640;2022-09-27T02:48:35;99706.84;;;8.47;100.00
74103;BME280;62853;46.166;3.640;2022-09-27T02:51:20;99702.53;;;8.46;100.00
74103;BME280;62853;46.166;3.640;2022-09-27T02:56:42;99694.69;;;8.32;100.00
74103;BME280;62853;46.166;3.640;2022-09-27T02:59:22;99686.06;;;8.30;100.00
74103;BME280;62853;46.166;3.640;2022-09-27T03:04:34;99692.25;;;8.29;100.00
74103;BME280;62853;46.166;3.640;2022-09-27T03:07:01;99671.81;;;8.19;100.00
74103;BME280;62853;46.166;3.640;2022-09-27T03:09:41;99692.16;;;8.30;100.00
74103;BME280;62853;46.166;3.640;2022-09-27T03:12:08;99692.16;;;8.30;100.00
74103;BME280;62853;46.166;3.640;2022-09-27T03:14:33;99702.75;;;8.29;100.00
74103;BME280;62853;46.166;3.640;2022-09-27T03:16:59;99695.06;;;8.26;100.00
74103;BME280;62853;46.166;3.640;2022-09-27T03:19:24;99688.88;;;8.27;100.00
74103;BME280;62853;46.166;3.640;2022-09-27T03:21:49;99689.06;;;8.24;100.00
74103;BME280;62853;46.166;3.640;2022-09-27T03:24:15;99701.34;;;8.23;100.00
74103;BME280;62853;46.166;3.640;2022-09-27T03:26:40;99680.94;;;8.14;100.00
74103;BME280;62853;46.166;3.640;2022-09-27T03:29:05;99692.25;;;8.14;100.00
74103;BME280;62853;46.166;3.640;2022-09-27T03:31:31;99683.84;;;8.09;100.00
74103;BME280;62853;46.166;3.640;2022-09-27T03:33:56;99687.88;;;8.15;100.00
74103;BME280;62853;46.166;3.640;2022-09-27T03:36:22;99697.50;;;8.14;100.00
74103;BME280;62853;46.166;3.640;2022-09-27T03:38:47;99708.97;;;8.13;100.00
74103;BME280;62853;46.166;3.640;2022-09-27T03:41:12;99697.31;;;8.17;100.00
74103;BME280;62853;46.166;3.640;2022-09-27T03:43:38;99704.63;;;8.12;100.00
74103;BME280;62853;46.166;3.640;2022-09-27T03:46:03;99695.66;;;8.16;100.00
74103;BME280;62853;46.166;3.640;2022-09-27T03:48:29;99696.50;;;8.17;100.00
74103;BME280;62853;46.166;3.640;2022-09-27T03:50:55;99689.63;;;8.14;100.00
74103;BME280;62853;46.166;3.640;2022-09-27T03:53:21;99705.19;;;8.17;100.00
74103;BME280;62853;46.166;3.640;2022-09-27T03:55:46;99718.31;;;8.17;100.00
74103;BME280;62853;46.166;3.640;2022-09-27T03:58:12;99720.75;;;8.20;100.00
74103;BME280;62853;46.166;3.640;2022-09-27T04:00:37;99721.56;;;8.21;100.00
74103;BME280;62853;46.166;3.640;2022-09-27T04:03:03;99724.28;;;8.19;100.00
74103;BME280;62853;46.166;3.640;2022-09-27T04:05:29;99716.63;;;8.16;100.00
74103;BME280;62853;46.166;3.640;2022-09-27T04:07:54;99730.50;;;8.18;100.00
74103;BME280;62853;46.166;3.640;2022-09-27T04:10:20;99738.53;;;8.15;100.00
74103;BME280;62853;46.166;3.640;2022-09-27T04:12:46;99745.28;;;8.19;100.00
74103;BME280;62853;46.166;3.640;2022-09-27T04:15:11;99742.78;;;8.18;100.00
74103;BME280;62853;46.166;3.640;2022-09-27T04:17:40;99742.88;;;8.16;100.00
74103;BME280;62853;46.166;3.640;2022-09-27T04:20:06;99752.50;;;8.16;100.00
74103;BME280;62853;46.166;3.640;2022-09-27T04:22:31;99749.88;;;8.16;100.00
74103;BME280;62853;46.166;3.640;2022-09-27T04:24:57;99744.84;;;8.13;100.00
74103;BME280;62853;46.166;3.640;2022-09-27T04:27:22;99750.91;;;8.13;100.00
74103;BME280;62853;46.166;3.640;2022-09-27T04:29:47;99742.88;;;8.16;100.00
74103;BME280;62853;46.166;3.640;2022-09-27T04:32:13;99736.09;;;8.12;100.00
74103;BME280;62853;46.166;3.640;2022-09-27T04:34:39;99748.28;;;8.13;100.00
74103;BME280;62853;46.166;3.640;2022-09-27T04:37:24;99733.47;;;8.12;100.00
74103;BME280;62853;46.166;3.640;2022-09-27T04:39:50;99736.09;;;8.12;100.00
74103;BME280;62853;46.166;3.640;2022-09-27T04:42:16;99736.09;;;8.12;100.00
74103;BME280;62853;46.166;3.640;2022-09-27T04:44:42;99731.81;;;8.11;100.00
74103;BME280;62853;46.166;3.640;2022-09-27T04:47:07;99724.78;;;8.12;100.00
74103;BME280;62853;46.166;3.640;2022-09-27T04:49:33;99721.13;;;8.14;100.00
74103;BME280;62853;46.166;3.640;2022-09-27T04:51:59;99727.03;;;8.18;100.00
74103;BME280;62853;46.166;3.640;2022-09-27T04:54:25;99721.78;;;8.18;100.00
74103;BME280;62853;46.166;3.640;2022-09-27T04:56:50;99727.97;;;8.17;100.00
74103;BME280;62853;46.166;3.640;2022-09-27T04:59:16;99721.25;;;8.13;100.00
74103;BME280;62853;46.166;3.640;2022-09-27T05:01:41;99720.28;;;8.14;100.00
74103;BME280;62853;46.166;3.640;2022-09-27T05:04:06;99738.72;;;8.12;100.00
74103;BME280;62853;46.166;3.640;2022-09-27T05:06:32;99728.66;;;8.06;100.00
74103;BME280;62853;46.166;3.640;2022-09-27T05:08:58;99724.22;;;8.07;100.00
74103;BME280;62853;46.166;3.640;2022-09-27T05:11:24;99734.72;;;8.07;100.00
74103;BME280;62853;46.166;3.640;2022-09-27T05:13:50;99741.94;;;8.03;100.00
74103;BME280;62853;46.166;3.640;2022-09-27T05:16:15;99740.53;;;7.97;100.00
74103;BME280;62853;46.166;3.640;2022-09-27T05:18:41;99737.44;;;7.91;100.00
74103;BME280;62853;46.166;3.640;2022-09-27T05:21:07;99734.06;;;7.89;100.00
74103;BME280;62853;46.166;3.640;2022-09-27T05:23:32;99734.34;;;7.84;100.00
74103;BME280;62853;46.166;3.640;2022-09-27T05:25:57;99748.13;;;7.88;100.00
74103;BME280;62853;46.166;3.640;2022-09-27T05:28:27;99750.75;;;7.88;100.00
74103;BME280;62853;46.166;3.640;2022-09-27T05:30:52;99749.78;;;7.89;100.00
74103;BME280;62853;46.166;3.640;2022-09-27T05:33:18;99739.78;;;7.81;100.00
74103;BME280;62853;46.166;3.640;2022-09-27T05:35:50;99742.03;;;7.87;100.00
74103;BME280;62853;46.166;3.640;2022-09-27T05:38:16;99743.72;;;7.88;100.00
74103;BME280;62853;46.166;3.640;2022-09-27T05:40:41;99740.44;;;7.85;100.00
74103;BME280;62853;46.166;3.640;2022-09-27T05:43:08;99749.41;;;7.80;100.00
74103;BME280;62853;46.166;3.640;2022-09-27T05:45:34;99744.25;;;7.79;100.00
74103;BME280;62853;46.166;3.640;2022-09-27T05:47:59;99744.19;;;7.80;100.00
74103;BME280;62853;46.166;3.640;2022-09-27T05:50:25;99753.81;;;7.80;100.00
74103;BME280;62853;46.166;3.640;2022-09-27T05:52:51;99753.75;;;7.81;100.00
74103;BME280;62853;46.166;3.640;2022-09-27T05:55:17;99759.06;;;7.80;100.00
74103;BME280;62853;46.166;3.640;2022-09-27T05:57:53;99753.91;;;7.78;100.00
74103;BME280;62853;46.166;3.640;2022-09-27T06:00:18;99758.97;;;7.81;100.00
74103;BME280;62853;46.166;3.640;2022-09-27T06:02:43;99763.28;;;7.82;100.00
74103;BME280;62853;46.166;3.640;2022-09-27T06:05:09;99765.06;;;7.82;100.00
74103;BME280;62853;46.166;3.640;2022-09-27T06:07:35;99762.34;;;7.83;100.00
74103;BME280;62853;46.166;3.640;2022-09-27T06:10:02;99756.28;;;7.83;100.00
74103;BME280;62853;46.166;3.640;2022-09-27T06:12:27;99762.16;;;7.87;100.00
74103;BME280;62853;46.166;3.640;2022-09-27T06:14:52;99765.53;;;7.89;100.00
74103;BME280;62853;46.166;3.640;2022-09-27T06:17:18;99763.00;;;7.87;100.00
74103;BME280;62853;46.166;3.640;2022-09-27T06:19:43;99765.53;;;7.89;100.00
74103;BME280;62853;46.166;3.640;2022-09-27T06:22:09;99771.50;;;7.91;100.00
74103;BME280;62853;46.166;3.640;2022-09-27T06:24:34;99778.44;;;7.92;100.00
74103;BME280;62853;46.166;3.640;2022-09-27T06:26:59;99774.13;;;7.91;100.00
74103;BME280;62853;46.166;3.640;2022-09-27T06:29:24;99762.91;;;7.89;100.00
74103;BME280;62853;46.166;3.640;2022-09-27T06:31:50;99767.13;;;7.91;100.00
74103;BME280;62853;46.166;3.640;2022-09-27T06:34:15;99773.22;;;7.92;100.00
74103;BME280;62853;46.166;3.640;2022-09-27T06:36:41;99762.81;;;7.90;100.00
74103;BME280;62853;46.166;3.640;2022-09-27T06:39:07;99762.72;;;7.92;100.00
74103;BME280;62853;46.166;3.640;2022-09-27T06:41:32;99764.41;;;7.93;100.00
74103;BME280;62853;46.166;3.640;2022-09-27T06:43:58;99763.38;;;7.95;100.00
74103;BME280;62853;46.166;3.640;2022-09-27T06:46:23;99767.50;;;7.99;100.00
74103;BME280;62853;46.166;3.640;2022-09-27T06:48:49;99771.88;;;7.99;100.00
74103;BME280;62853;46.166;3.640;2022-09-27T06:51:14;99770.13;;;7.99;100.00
74103;BME280;62853;46.166;3.640;2022-09-27T06:53:39;99769.44;;;7.96;100.00
74103;BME280;62853;46.166;3.640;2022-09-27T06:56:05;99775.47;;;7.98;100.00
74103;BME280;62853;46.166;3.640;2022-09-27T06:58:30;99778.09;;;7.98;100.00
74103;BME280;62853;46.166;3.640;2022-09-27T07:01:14;99783.25;;;7.99;100.00
74103;BME280;62853;46.166;3.640;2022-09-27T07:03:41;99774.50;;;7.99;100.00
74103;BME280;62853;46.166;3.640;2022-09-27T07:06:16;99781.47;;;8.00;100.00
74103;BME280;62853;46.166;3.640;2022-09-27T07:08:42;99775.47;;;7.98;100.00
74103;BME280;62853;46.166;3.640;2022-09-27T07:11:07;99772.53;;;8.02;100.00
74103;BME280;62853;46.166;3.640;2022-09-27T07:13:33;99774.16;;;8.05;100.00
74103;BME280;62853;46.166;3.640;2022-09-27T07:16:01;99777.16;;;8.13;100.00
74103;BME280;62853;46.166;3.640;2022-09-27T07:18:26;99780.41;;;8.17;100.00
74103;BME280;62853;46.166;3.640;2022-09-27T07:20:52;99788.56;;;8.27;100.00
74103;BME280;62853;46.166;3.640;2022-09-27T07:23:18;99785.75;;;8.30;100.00
74103;BME280;62853;46.166;3.640;2022-09-27T07:25:44;99775.44;;;8.27;100.00
74103;BME280;62853;46.166;3.640;2022-09-27T07:28:15;99787.41;;;8.31;100.00
74103;BME280;62853;46.166;3.640;2022-09-27T07:30:40;99786.31;;;8.35;100.00
74103;BME280;62853;46.166;3.640;2022-09-27T07:33:06;99787.25;;;8.34;100.00
74103;BME280;62853;46.166;3.640;2022-09-27T07:35:33;99792.03;;;8.42;100.00
74103;BME280;62853;46.166;3.640;2022-09-27T07:38:04;99788.53;;;8.41;100.00
74103;BME280;62853;46.166;3.640;2022-09-27T07:40:32;99789.31;;;8.43;100.00
74103;BME280;62853;46.166;3.640;2022-09-27T07:42:58;99795.97;;;8.49;100.00
74103;BME280;62853;46.166;3.640;2022-09-27T07:45:26;99789.97;;;8.47;100.00
74103;BME280;62853;46.166;3.640;2022-09-27T07:47:51;99792.38;;;8.50;100.00
74103;BME280;62853;46.166;3.640;2022-09-27T07:50:17;99800.16;;;8.51;100.00
74103;BME280;62853;46.166;3.640;2022-09-27T07:52:45;99799.03;;;8.55;100.00
74103;BME280;62853;46.166;3.640;2022-09-27T07:55:12;99800.94;;;8.53;100.00
74103;BME280;62853;46.166;3.640;2022-09-27T07:57:38;99796.53;;;8.54;100.00
74103;BME280;62853;46.166;3.640;2022-09-27T08:00:09;99807.47;;;8.61;100.00
74103;BME280;62853;46.166;3.640;2022-09-27T08:02:35;99791.09;;;8.57;100.00
74103;BME280;62853;46.166;3.640;2022-09-27T08:05:02;99809.91;;;8.64;100.00
74103;BME280;62853;46.166;3.640;2022-09-27T08:07:28;99808.94;;;8.65;100.00
74103;BME280;62853;46.166;3.640;2022-09-27T08:09:54;99796.97;;;8.61;100.00
74103;BME280;62853;46.166;3.640;2022-09-27T08:12:20;99807.09;;;8.67;100.00
74103;BME280;62853;46.166;3.640;2022-09-27T08:14:47;99816.53;;;8.69;100.00
74103;BME280;62853;46.166;3.640;2022-09-27T08:17:13;99815.63;;;8.70;100.00
74103;BME280;62853;46.166;3.640;2022-09-27T08:19:39;99821.69;;;8.71;100.00
74103;BME280;62853;46.166;3.640;2022-09-27T08:22:05;99825.06;;;8.73;100.00
74103;BME280;62853;46.166;3.640;2022-09-27T08:24:31;99831.91;;;8.75;100.00
74103;BME280;62853;46.166;3.640;2022-09-27T08:26:56;99825.69;;;8.77;100.00
74103;BME280;62853;46.166;3.640;2022-09-27T08:29:22;99815.63;;;8.70;100.00
74103;BME280;62853;46.166;3.640;2022-09-27T08:31:49;99818.59;;;8.79;100.00
74103;BME280;62853;46.166;3.640;2022-09-27T08:34:15;99825.50;;;8.80;100.00
74103;BME280;62853;46.166;3.640;2022-09-27T08:36:42;99818.59;;;8.79;100.00
74103;BME280;62853;46.166;3.640;2022-09-27T08:39:08;99820.16;;;8.81;100.00
74103;BME280;62853;46.166;3.640;2022-09-27T08:41:49;99831.59;;;8.80;100.00
74103;BME280;62853;46.166;3.640;2022-09-27T08:46:58;99832.16;;;8.85;100.00
74103;BME280;62853;46.166;3.640;2022-09-27T08:49:38;99828.69;;;8.85;100.00
74103;BME280;62853;46.166;3.640;2022-09-27T08:52:12;99818.00;;;8.88;100.00
74103;BME280;62853;46.166;3.640;2022-09-27T08:54:42;99820.53;;;8.89;100.00
74103;BME280;62853;46.166;3.640;2022-09-27T08:57:11;99818.91;;;8.87;100.00
74103;BME280;62853;46.166;3.640;2022-09-27T08:59:43;99820.44;;;8.91;100.00
74103;BME280;62853;46.166;3.640;2022-09-27T09:02:20;99813.28;;;8.93;100.00
74103;BME280;62853;46.166;3.640;2022-09-27T09:04:52;99821.06;;;8.94;100.00
74103;BME280;62853;46.166;3.640;2022-09-27T09:10:05;99827.16;;;8.95;100.00
74103;BME280;62853;46.166;3.640;2022-09-27T09:13:02;99823.41;;;8.99;100.00
74103;BME280;62853;46.166;3.640;2022-09-27T09:15:49;99816.16;;;9.03;100.00
74103;BME280;62853;46.166;3.640;2022-09-27T09:24:02;99817.78;;;9.18;100.00
74103;BME280;62853;46.166;3.640;2022-09-27T09:26:41;99813.78;;;9.12;100.00
74103;BME280;62853;46.166;3.640;2022-09-27T09:34:25;99831.31;;;9.12;100.00
74103;BME280;62853;46.166;3.640;2022-09-27T09:37:01;99831.50;;;9.09;100.00
74103;BME280;62853;46.166;3.640;2022-09-27T09:42:16;99830.38;;;9.13;100.00
74103;BME280;62853;46.166;3.640;2022-09-27T09:45:11;99828.94;;;9.22;100.00
74103;BME280;62853;46.166;3.640;2022-09-27T09:50:21;99828.53;;;9.28;100.00
74103;BME280;62853;46.166;3.640;2022-09-27T09:52:56;99839.25;;;9.25;100.00
74103;BME280;62853;46.166;3.640;2022-09-27T09:55:27;99839.63;;;9.19;100.00
74103;BME280;62853;46.166;3.640;2022-09-27T10:00:25;99829.91;;;9.21;100.00
74103;BME280;62853;46.166;3.640;2022-09-27T10:02:53;99836.00;;;9.21;100.00
74103;BME280;62853;46.166;3.640;2022-09-27T10:05:24;99831.75;;;9.19;100.00
74103;BME280;62853;46.166;3.640;2022-09-27T10:07:52;99841.97;;;9.23;100.00
74103;BME280;62853;46.166;3.640;2022-09-27T10:10:19;99841.44;;;9.18;100.00
74103;BME280;62853;46.166;3.640;2022-09-27T10:12:46;99842.88;;;9.09;100.00
74103;BME280;62853;46.166;3.640;2022-09-27T10:15:23;99844.78;;;9.07;100.00
74103;BME280;62853;46.166;3.640;2022-09-27T10:17:52;99833.81;;;9.01;100.00
74103;BME280;62853;46.166;3.640;2022-09-27T10:20:29;99845.78;;;9.05;100.00
74103;BME280;62853;46.166;3.640;2022-09-27T10:23:03;99844.00;;;9.05;100.00
74103;BME280;62853;46.166;3.640;2022-09-27T10:25:59;99832.31;;;8.97;100.00
74103;BME280;62853;46.166;3.640;2022-09-27T10:28:42;99842.81;;;8.97;100.00
74103;BME280;62853;46.166;3.640;2022-09-27T10:31:12;99840.81;;;9.00;100.00
74103;BME280;62853;46.166;3.640;2022-09-27T10:36:26;99835.56;;;9.00;100.00
74103;BME280;62853;46.166;3.640;2022-09-27T10:38:56;99842.81;;;8.97;100.00
74103;BME280;62853;46.166;3.640;2022-09-27T10:41:39;99833.00;;;8.86;100.00
74103;BME280;62853;46.166;3.640;2022-09-27T10:46:44;99841.06;;;8.83;100.00
74103;BME280;62853;46.166;3.640;2022-09-27T10:49:19;99847.25;;;8.82;100.00
74103;BME280;62853;46.166;3.640;2022-09-27T10:51:50;99844.19;;;8.75;100.00
74103;BME280;62853;46.166;3.640;2022-09-27T10:57:16;99852.47;;;8.69;100.00
74103;BME280;62853;46.166;3.640;2022-09-27T10:59:45;99845.41;;;8.69;100.00
74103;BME280;62853;46.166;3.640;2022-09-27T11:02:35;99849.25;;;8.78;100.00
74103;BME280;62853;46.166;3.640;2022-09-27T11:05:28;99854.50;;;8.78;100.00
74103;BME280;62853;46.166;3.640;2022-09-27T11:08:42;99849.25;;;8.78;100.00
74103;BME280;62853;46.166;3.640;2022-09-27T11:10:42;99847.91;;;8.85;100.00
74103;BME280;62853;46.166;3.640;2022-09-27T11:18:32;99837.84;;;8.92;100.00
74103;BME280;62853;46.166;3.640;2022-09-27T11:23:48;99828.00;;;8.96;100.00
74103;BME280;62853;46.166;3.640;2022-09-27T11:29:05;99818.69;;;9.04;100.00
74103;BME280;62853;46.166;3.640;2022-09-27T11:37:57;99827.13;;;9.09;100.00
74103;BME280;62853;46.166;3.640;2022-09-27T11:48:29;99816.00;;;9.19;100.00
74103;BME280;62853;46.166;3.640;2022-09-27T11:53:51;99811.41;;;9.35;100.00
74103;BME280;62853;46.166;3.640;2022-09-27T11:59:40;99817.50;;;9.36;100.00
74103;BME280;62853;46.166;3.640;2022-09-27T12:08:32;99809.44;;;9.39;100.00
74103;BME280;62853;46.166;3.640;2022-09-27T12:14:46;99810.50;;;9.49;100.00
74103;BME280;62853;46.166;3.640;2022-09-27T12:16:52;99810.00;;;9.57;100.00
74103;BME280;62853;46.166;3.640;2022-09-27T12:19:30;99803.69;;;9.59;100.00
74103;BME280;62853;46.166;3.640;2022-09-27T12:22:00;99810.31;;;9.65;100.00
74103;BME280;62853;46.166;3.640;2022-09-27T12:24:27;99802.34;;;9.66;100.00
74103;BME280;62853;46.166;3.640;2022-09-27T12:26:54;99792.00;;;9.76;100.00
74103;BME280;62853;46.166;3.640;2022-09-27T12:29:29;99797.06;;;9.79;100.00
74103;BME280;62853;46.166;3.640;2022-09-27T12:32:13;99787.09;;;9.72;100.00
74103;BME280;62853;46.166;3.640;2022-09-27T12:34:49;99785.28;;;9.72;100.00
74103;BME280;62853;46.166;3.640;2022-09-27T12:37:32;99775.59;;;9.73;100.00
74103;BME280;62853;46.166;3.640;2022-09-27T12:40:21;99775.63;;;9.85;100.00
74103;BME280;62853;46.166;3.640;2022-09-27T12:43:17;99784.13;;;10.02;100.00
74103;BME280;62853;46.166;3.640;2022-09-27T12:51:10;99790.50;;;10.23;100.00
74103;BME280;62853;46.166;3.640;2022-09-27T12:59:16;99790.44;;;10.12;100.00
74103;BME280;62853;46.166;3.640;2022-09-27T13:10:10;99792.75;;;10.42;100.00
74103;BME280;62853;46.166;3.640;2022-09-27T13:12:49;99782.53;;;10.38;100.00
74103;BME280;62853;46.166;3.640;2022-09-27T13:15:34;99780.72;;;10.38;100.00
74103;BME280;62853;46.166;3.640;2022-09-27T13:18:02;99780.94;;;10.35;100.00
74103;BME280;62853;46.166;3.640;2022-09-27T13:25:50;99782.94;;;10.32;100.00
74103;BME280;62853;46.166;3.640;2022-09-27T13:33:31;99769.34;;;10.25;100.00
74103;BME280;62853;46.166;3.640;2022-09-27T13:41:18;99764.34;;;10.22;100.00
74103;BME280;62853;46.166;3.640;2022-09-27T13:49:37;99757.16;;;10.24;100.00
74103;BME280;62853;46.166;3.640;2022-09-27T13:54:57;99751.91;;;10.24;100.00
74103;BME280;62853;46.166;3.640;2022-09-27T13:57:41;99746.19;;;10.30;100.00
74103;BME280;62853;46.166;3.640;2022-09-27T14:00:19;99745.06;;;10.34;100.00
74103;BME280;62853;46.166;3.640;2022-09-27T14:03:04;99751.84;;;10.50;100.00
74103;BME280;62853;46.166;3.640;2022-09-27T14:05:48;99737.00;;;10.49;100.00
74103;BME280;62853;46.166;3.640;2022-09-27T14:08:29;99737.28;;;10.57;100.00
74103;BME280;62853;46.166;3.640;2022-09-27T14:10:57;99747.00;;;10.56;100.00
74103;BME280;62853;46.166;3.640;2022-09-27T14:13:24;99742.56;;;10.57;100.00
74103;BME280;62853;46.166;3.640;2022-09-27T14:15:51;99753.88;;;10.46;100.00
74103;BME280;62853;46.166;3.640;2022-09-27T14:18:18;99756.59;;;10.45;100.00
74103;BME280;62853;46.166;3.640;2022-09-27T14:20:45;99737.44;;;10.30;100.00
74103;BME280;62853;46.166;3.640;2022-09-27T14:23:20;99737.44;;;10.30;100.00
74103;BME280;62853;46.166;3.640;2022-09-27T14:25:47;99745.88;;;10.35;100.00
74103;BME280;62853;46.166;3.640;2022-09-27T14:28:24;99751.66;;;10.40;100.00
74103;BME280;62853;46.166;3.640;2022-09-27T14:31:23;99753.03;;;10.46;100.00
74103;BME280;62853;46.166;3.640;2022-09-27T14:33:49;99741.25;;;10.38;100.00
74103;BME280;62853;46.166;3.640;2022-09-27T14:36:29;99747.88;;;10.44;100.00
74103;BME280;62853;46.166;3.640;2022-09-27T14:39:33;99746.50;;;10.38;100.00
74103;BME280;62853;46.166;3.640;2022-09-27T14:42:04;99742.53;;;10.33;100.00
74103;BME280;62853;46.166;3.640;2022-09-27T14:44:31;99747.47;;;10.37;100.00
74103;BME280;62853;46.166;3.640;2022-09-27T14:47:17;99748.63;;;10.33;100.00
74103;BME280;62853;46.166;3.640;2022-09-27T14:52:21;99743.47;;;10.32;100.00
74103;BME280;62853;46.166;3.640;2022-09-27T14:55:04;99746.19;;;10.30;100.00
74103;BME280;62853;46.166;3.640;2022-09-27T14:57:30;99747.03;;;10.31;100.00
74103;BME280;62853;46.166;3.640;2022-09-27T15:00:31;99744.50;;;10.29;100.00
74103;BME280;62853;46.166;3.640;2022-09-27T15:02:58;99754.94;;;10.31;100.00
74103;BME280;62853;46.166;3.640;2022-09-27T15:05:27;99743.03;;;10.25;100.00
74103;BME280;62853;46.166;3.640;2022-09-27T15:07:53;99739.34;;;10.28;100.00
74103;BME280;62853;46.166;3.640;2022-09-27T15:10:24;99756.94;;;10.27;100.00
74103;BME280;62853;46.166;3.640;2022-09-27T15:12:53;99747.47;;;10.24;100.00
74103;BME280;62853;46.166;3.640;2022-09-27T15:15:24;99747.06;;;10.18;100.00
74103;BME280;62853;46.166;3.640;2022-09-27T15:17:50;99744.34;;;10.06;100.00
74103;BME280;62853;46.166;3.640;2022-09-27T15:22:50;99739.72;;;10.10;100.00
74103;BME280;62853;46.166;3.640;2022-09-27T15:25:42;99736.22;;;10.10;100.00
74103;BME280;62853;46.166;3.640;2022-09-27T15:30:37;99740.88;;;10.06;100.00
74103;BME280;62853;46.166;3.640;2022-09-27T15:33:04;99739.94;;;10.07;100.00
74103;BME280;62853;46.166;3.640;2022-09-27T15:35:32;99738.97;;;10.08;100.00
74103;BME280;62853;46.166;3.640;2022-09-27T15:43:39;99740.34;;;10.01;100.00
74103;BME280;62853;46.166;3.640;2022-09-27T15:46:25;99745.63;;;9.88;100.00
74103;BME280;62853;46.166;3.640;2022-09-27T15:49:30;99745.44;;;9.78;100.00
74103;BME280;62853;46.166;3.640;2022-09-27T15:51:59;99734.41;;;9.73;100.00
74103;BME280;62853;46.166;3.640;2022-09-27T15:54:27;99726.81;;;9.68;100.00